createdAt,value
2018-07-08T00:01:30.805Z,101752.36
2018-07-08T00:03:59.260Z,101744.70
2018-07-08T00:06:27.635Z,101745.39
2018-07-08T00:08:56.054Z,101747.88
2018-07-08T00:11:24.393Z,101740.05
2018-07-08T00:13:52.765Z,101744.73
2018-07-08T00:16:21.119Z,101744.72
2018-07-08T00:18:49.503Z,101743.89
2018-07-08T00:21:17.970Z,101743.55
2018-07-08T00:23:46.345Z,101744.88
2018-07-08T00:26:14.715Z,101733.70
2018-07-08T00:28:43.042Z,101737.70
2018-07-08T00:31:11.403Z,101733.53
2018-07-08T00:33:39.787Z,101736.55
2018-07-08T00:36:08.144Z,101732.89
2018-07-08T00:38:36.469Z,101731.05
2018-07-08T00:41:04.930Z,101732.39
2018-07-08T00:43:33.283Z,101734.69
2018-07-08T00:46:01.638Z,101734.52
2018-07-08T00:48:29.965Z,101735.34
2018-07-08T00:50:58.333Z,101740.80
2018-07-08T00:53:26.707Z,101746.29
2018-07-08T00:55:54.993Z,101743.95
2018-07-08T00:58:23.354Z,101749.73
2018-07-08T01:00:51.752Z,101753.06
2018-07-08T01:03:20.105Z,101747.72
2018-07-08T01:05:48.433Z,101750.69
2018-07-08T01:08:16.767Z,101750.67
2018-07-08T01:10:45.129Z,101747.18
2018-07-08T01:13:13.497Z,101746.63
2018-07-08T01:15:41.847Z,101747.12
2018-07-08T01:18:10.201Z,101750.91
2018-07-08T01:20:38.567Z,101746.73
2018-07-08T01:23:06.952Z,101754.06
2018-07-08T01:25:46.744Z,101765.33
2018-07-08T01:28:15.111Z,101768.47
2018-07-08T01:30:43.518Z,101767.12
2018-07-08T01:33:11.914Z,101765.13
2018-07-08T01:35:40.265Z,101772.05
2018-07-08T01:38:08.624Z,101768.72
2018-07-08T01:40:36.996Z,101771.52
2018-07-08T01:43:05.307Z,101771.82
2018-07-08T01:45:33.636Z,101769.34
2018-07-08T01:48:01.988Z,101769.34
2018-07-08T01:50:30.440Z,101775.80
2018-07-08T01:52:58.805Z,101772.13
2018-07-08T01:55:27.390Z,101767.61
2018-07-08T01:57:55.759Z,101769.42
2018-07-08T02:00:24.122Z,101772.50
2018-07-08T02:02:52.509Z,101774.96
2018-07-08T02:05:20.871Z,101773.61
2018-07-08T02:07:49.229Z,101772.45
2018-07-08T02:10:17.577Z,101768.80
2018-07-08T02:12:46.001Z,101776.59
2018-07-08T02:15:14.353Z,101779.75
2018-07-08T02:17:42.709Z,101779.23
2018-07-08T02:20:11.084Z,101782.55
2018-07-08T02:22:39.428Z,101785.01
2018-07-08T02:25:07.865Z,101773.20
2018-07-08T02:27:36.194Z,101772.73
2018-07-08T02:30:04.677Z,101781.66
2018-07-08T02:32:33.017Z,101785.42
2018-07-08T02:35:01.370Z,101784.38
2018-07-08T02:37:29.757Z,101783.21
2018-07-08T02:39:58.264Z,101780.70
2018-07-08T02:42:26.609Z,101786.17
2018-07-08T02:44:55.310Z,101784.51
2018-07-08T02:47:24.357Z,101790.45
2018-07-08T02:49:52.711Z,101801.39
2018-07-08T02:52:22.216Z,101792.27
2018-07-08T02:54:50.545Z,101800.83
2018-07-08T02:57:19.205Z,101796.09
2018-07-08T02:59:47.757Z,101801.80
2018-07-08T03:02:16.094Z,101797.55
2018-07-08T03:04:44.442Z,101802.48
2018-07-08T03:07:12.796Z,101800.59
2018-07-08T03:09:41.181Z,101800.19
2018-07-08T03:12:09.611Z,101805.45
2018-07-08T03:14:38.020Z,101806.36
2018-07-08T03:17:06.393Z,101805.98
2018-07-08T03:19:34.908Z,101813.24
2018-07-08T03:22:03.286Z,101816.39
2018-07-08T03:24:31.674Z,101813.06
2018-07-08T03:27:00.004Z,101808.39
2018-07-08T03:29:28.333Z,101804.91
2018-07-08T03:31:56.704Z,101803.59
2018-07-08T03:34:25.106Z,101800.45
2018-07-08T03:36:53.460Z,101802.64
2018-07-08T03:39:21.807Z,101804.01
2018-07-08T03:41:50.187Z,101806.36
2018-07-08T03:44:18.527Z,101810.70
2018-07-08T03:46:46.923Z,101812.61
2018-07-08T03:49:15.256Z,101817.77
2018-07-08T03:51:43.616Z,101810.85
2018-07-08T03:54:23.378Z,101813.16
2018-07-08T03:56:51.731Z,101812.69
2018-07-08T03:59:20.064Z,101815.30
2018-07-08T04:01:48.460Z,101819.42
2018-07-08T04:04:17.079Z,101805.42
2018-07-08T04:06:45.419Z,101807.45
2018-07-08T04:09:14.011Z,101811.87
2018-07-08T04:11:42.354Z,101813.20
2018-07-08T04:14:10.725Z,101816.70
2018-07-08T04:16:39.077Z,101813.55
2018-07-08T04:19:07.527Z,101813.70
2018-07-08T04:21:35.898Z,101821.18
2018-07-08T04:24:04.289Z,101813.17
2018-07-08T04:26:32.626Z,101812.44
2018-07-08T04:29:00.939Z,101827.56
2018-07-08T04:31:29.273Z,101819.80
2018-07-08T04:33:57.580Z,101827.50
2018-07-08T04:36:25.955Z,101823.16
2018-07-08T04:38:54.268Z,101826.63
2018-07-08T04:41:22.590Z,101825.00
2018-07-08T04:43:50.935Z,101833.48
2018-07-08T04:46:19.414Z,101832.79
2018-07-08T04:48:47.786Z,101831.02
2018-07-08T04:51:16.110Z,101828.02
2018-07-08T04:53:44.429Z,101833.54
2018-07-08T04:56:12.782Z,101833.79
2018-07-08T04:58:41.103Z,101837.33
2018-07-08T05:01:09.543Z,101833.47
2018-07-08T05:03:37.903Z,101834.39
2018-07-08T05:06:06.257Z,101844.58
2018-07-08T05:08:34.654Z,101852.38
2018-07-08T05:11:02.991Z,101853.00
2018-07-08T05:13:31.351Z,101854.48
2018-07-08T05:15:59.799Z,101852.96
2018-07-08T05:18:28.565Z,101857.09
2018-07-08T05:20:56.899Z,101856.09
2018-07-08T05:23:25.357Z,101864.39
2018-07-08T05:25:53.720Z,101863.72
2018-07-08T05:28:22.196Z,101864.39
2018-07-08T05:30:50.551Z,101867.82
2018-07-08T05:33:18.977Z,101869.94
2018-07-08T05:35:47.806Z,101863.91
2018-07-08T05:38:16.079Z,101861.50
2018-07-08T05:40:44.431Z,101871.59
2018-07-08T05:43:12.793Z,101870.28
2018-07-08T05:45:41.133Z,101867.22
2018-07-08T05:48:09.537Z,101866.35
2018-07-08T05:50:38.052Z,101876.87
2018-07-08T05:53:06.324Z,101868.67
2018-07-08T05:55:34.813Z,101869.41
2018-07-08T05:58:03.146Z,101868.19
2018-07-08T06:00:31.513Z,101869.84
2018-07-08T06:02:59.860Z,101868.13
2018-07-08T06:05:28.420Z,101874.92
2018-07-08T06:07:56.744Z,101873.44
2018-07-08T06:10:25.097Z,101878.78
2018-07-08T06:12:53.411Z,101873.27
2018-07-08T06:15:21.878Z,101869.22
2018-07-08T06:17:50.238Z,101874.14
2018-07-08T06:20:18.580Z,101876.18
2018-07-08T06:22:46.935Z,101877.48
2018-07-08T06:25:15.262Z,101865.75
2018-07-08T06:27:43.630Z,101868.25
2018-07-08T06:30:11.987Z,101858.94
2018-07-08T06:32:40.359Z,101859.02
2018-07-08T06:35:09.101Z,101863.41
2018-07-08T06:37:37.454Z,101861.71
2018-07-08T06:40:05.828Z,101854.23
2018-07-08T06:42:34.205Z,101858.30
2018-07-08T06:45:02.688Z,101862.66
2018-07-08T06:47:31.161Z,101855.83
2018-07-08T06:49:59.500Z,101850.68
2018-07-08T06:52:28.133Z,101851.95
2018-07-08T06:54:56.591Z,101851.95
2018-07-08T06:57:24.971Z,101856.80
2018-07-08T06:59:53.337Z,101846.87
2018-07-08T07:02:21.722Z,101849.84
2018-07-08T07:04:50.072Z,101853.03
2018-07-08T07:07:18.500Z,101849.73
2018-07-08T07:09:46.853Z,101849.97
2018-07-08T07:12:15.191Z,101855.55
2018-07-08T07:14:43.535Z,101857.68
2018-07-08T07:17:11.897Z,101854.18
2018-07-08T07:19:40.264Z,101843.94
2018-07-08T07:22:08.605Z,101850.56
2018-07-08T07:24:36.955Z,101850.53
2018-07-08T07:27:06.036Z,101846.98
2018-07-08T07:29:34.364Z,101841.94
2018-07-08T07:32:02.716Z,101843.05
2018-07-08T07:34:31.081Z,101838.55
2018-07-08T07:36:59.507Z,101841.51
2018-07-08T07:39:27.820Z,101839.56
2018-07-08T07:41:56.173Z,101840.08
2018-07-08T07:44:24.543Z,101844.42
2018-07-08T07:46:52.883Z,101844.81
2018-07-08T07:49:21.244Z,101847.63
2018-07-08T07:51:49.713Z,101846.92
2018-07-08T07:54:18.099Z,101850.36
2018-07-08T07:56:46.417Z,101852.39
2018-07-08T07:59:14.846Z,101845.50
2018-07-08T08:01:43.164Z,101848.94
2018-07-08T08:04:11.544Z,101843.42
2018-07-08T08:06:39.873Z,101849.50
2018-07-08T08:09:08.393Z,101840.02
2018-07-08T08:11:36.789Z,101843.16
2018-07-08T08:14:06.681Z,101851.38
2018-07-08T08:16:35.041Z,101844.04
2018-07-08T08:19:03.950Z,101838.80
2018-07-08T08:21:32.331Z,101835.76
2018-07-08T08:24:00.810Z,101838.20
2018-07-08T08:26:29.885Z,101840.64
2018-07-08T08:28:58.481Z,101843.85
2018-07-08T08:31:26.812Z,101839.12
2018-07-08T08:35:06.886Z,101844.92
2018-07-08T08:37:40.558Z,101847.19
2018-07-08T08:40:09.561Z,101841.61
2018-07-08T08:42:37.982Z,101848.68
2018-07-08T08:45:07.808Z,101840.93
2018-07-08T08:47:36.386Z,101838.88
2018-07-08T08:50:05.487Z,101831.36
2018-07-08T08:52:33.862Z,101846.86
2018-07-08T08:55:02.194Z,101840.48
2018-07-08T08:57:30.555Z,101841.38
2018-07-08T08:59:58.873Z,101838.78
2018-07-08T09:02:27.236Z,101841.70
2018-07-08T09:04:55.560Z,101839.67
2018-07-08T09:07:24.125Z,101835.52
2018-07-08T09:09:52.477Z,101839.16
2018-07-08T09:12:20.809Z,101846.23
2018-07-08T09:14:49.272Z,101843.83
2018-07-08T09:17:17.644Z,101846.06
2018-07-08T09:19:45.941Z,101836.48
2018-07-08T09:22:14.365Z,101838.02
2018-07-08T09:24:42.676Z,101835.00
2018-07-08T09:27:11.022Z,101838.27
2018-07-08T09:29:39.378Z,101837.31
2018-07-08T09:32:07.721Z,101837.17
2018-07-08T09:34:36.108Z,101848.79
2018-07-08T09:37:04.464Z,101847.52
2018-07-08T09:39:32.807Z,101845.95
2018-07-08T09:42:01.153Z,101843.65
2018-07-08T09:44:29.461Z,101838.20
2018-07-08T09:46:57.844Z,101847.20
2018-07-08T09:49:26.156Z,101849.27
2018-07-08T09:51:54.507Z,101847.09
2018-07-08T09:54:23.023Z,101852.93
2018-07-08T09:56:51.467Z,101853.27
2018-07-08T09:59:19.844Z,101843.11
2018-07-08T10:01:49.188Z,101852.27
2018-07-08T10:04:22.120Z,101842.67
2018-07-08T10:06:51.252Z,101840.69
2018-07-08T10:09:20.924Z,101833.60
2018-07-08T10:11:49.352Z,101831.00
2018-07-08T10:14:18.974Z,101841.82
2018-07-08T10:16:47.391Z,101833.09
2018-07-08T10:19:16.977Z,101828.29
2018-07-08T10:21:45.369Z,101830.50
2018-07-08T10:24:13.706Z,101829.95
2018-07-08T10:26:42.075Z,101829.55
2018-07-08T10:29:12.566Z,101841.10
2018-07-08T10:31:51.416Z,101831.53
2018-07-08T10:34:19.913Z,101830.11
2018-07-08T10:36:48.295Z,101825.91
2018-07-08T10:39:17.310Z,101826.68
2018-07-08T10:41:45.637Z,101824.86
2018-07-08T10:44:14.024Z,101816.16
2018-07-08T10:46:43.117Z,101819.97
2018-07-08T10:49:11.645Z,101821.52
2018-07-08T10:51:40.007Z,101812.48
2018-07-08T10:54:08.882Z,101815.77
2018-07-08T10:56:37.244Z,101809.05
2018-07-08T10:59:05.703Z,101808.48
2018-07-08T11:01:34.073Z,101814.99
2018-07-08T11:04:02.634Z,101811.37
2018-07-08T11:06:31.003Z,101804.66
2018-07-08T11:08:59.355Z,101804.56
2018-07-08T11:11:28.305Z,101800.23
2018-07-08T11:13:56.646Z,101805.32
2018-07-08T11:16:24.981Z,101809.87
2018-07-08T11:18:53.332Z,101799.02
2018-07-08T11:21:21.715Z,101793.04
2018-07-08T11:23:50.117Z,101793.27
2018-07-08T11:26:18.537Z,101793.27
2018-07-08T11:28:46.850Z,101791.70
2018-07-08T11:31:15.232Z,101780.13
2018-07-08T11:33:43.671Z,101788.30
2018-07-08T11:36:12.053Z,101784.77
2018-07-08T11:38:40.381Z,101778.67
2018-07-08T11:41:08.830Z,101791.47
2018-07-08T11:43:37.189Z,101780.53
2018-07-08T11:46:05.601Z,101783.80
2018-07-08T11:48:33.973Z,101777.95
2018-07-08T11:51:02.314Z,101782.19
2018-07-08T11:53:30.674Z,101772.17
2018-07-08T11:55:59.073Z,101768.95
2018-07-08T11:58:27.407Z,101774.00
2018-07-08T12:00:55.757Z,101768.33
2018-07-08T12:03:24.324Z,101765.93
2018-07-08T12:05:52.731Z,101769.25
2018-07-08T12:08:21.112Z,101762.30
2018-07-08T12:10:49.528Z,101762.83
2018-07-08T12:13:17.932Z,101765.73
2018-07-08T12:15:46.256Z,101762.63
2018-07-08T12:18:14.632Z,101754.31
2018-07-08T12:20:42.987Z,101759.48
2018-07-08T12:23:11.375Z,101749.13
2018-07-08T12:25:39.766Z,101751.83
2018-07-08T12:28:08.185Z,101757.81
2018-07-08T12:30:36.715Z,101757.09
2018-07-08T12:33:05.075Z,101755.46
2018-07-08T12:35:33.439Z,101752.44
2018-07-08T12:38:01.803Z,101746.34
2018-07-08T12:40:30.171Z,101750.95
2018-07-08T12:42:58.687Z,101739.99
2018-07-08T12:45:27.059Z,101745.09
2018-07-08T12:47:55.517Z,101739.69
2018-07-08T12:50:23.883Z,101741.09
2018-07-08T12:52:52.269Z,101741.88
2018-07-08T12:55:20.632Z,101740.47
2018-07-08T12:57:49.024Z,101735.65
2018-07-08T13:00:17.740Z,101730.36
2018-07-08T13:02:46.130Z,101721.77
2018-07-08T13:05:14.469Z,101724.22
2018-07-08T13:07:42.824Z,101731.21
2018-07-08T13:10:11.669Z,101723.34
2018-07-08T13:12:40.073Z,101733.05
2018-07-08T13:15:08.432Z,101735.64
2018-07-08T13:17:36.803Z,101733.19
2018-07-08T13:20:05.630Z,101734.47
2018-07-08T13:22:33.928Z,101735.39
2018-07-08T13:25:02.277Z,101729.25
2018-07-08T13:27:30.628Z,101727.30
2018-07-08T13:29:58.980Z,101714.34
2018-07-08T13:32:27.305Z,101714.30
2018-07-08T13:34:55.662Z,101714.66
2018-07-08T13:37:24.009Z,101727.11
2018-07-08T13:39:52.344Z,101718.53
2018-07-08T13:42:20.690Z,101721.13
2018-07-08T13:44:49.328Z,101717.05
2018-07-08T13:47:17.695Z,101722.38
2018-07-08T13:49:46.044Z,101717.05
2018-07-08T13:52:14.368Z,101717.61
2018-07-08T13:54:42.753Z,101722.23
2018-07-08T13:57:11.065Z,101713.50
2018-07-08T13:59:39.506Z,101723.96
2018-07-08T14:02:07.846Z,101715.22
2018-07-08T14:04:36.244Z,101706.03
2018-07-08T14:07:04.833Z,101708.68
2018-07-08T14:09:33.204Z,101714.34
2018-07-08T14:12:01.589Z,101719.55
2018-07-08T14:14:29.897Z,101726.47
2018-07-08T14:16:58.463Z,101716.04
2018-07-08T14:19:26.773Z,101713.25
2018-07-08T14:21:55.156Z,101709.05
2018-07-08T14:24:23.489Z,101704.97
2018-07-08T14:26:51.833Z,101709.02
2018-07-08T14:29:20.210Z,101706.59
2018-07-08T14:31:48.538Z,101710.57
2018-07-08T14:34:17.370Z,101693.13
2018-07-08T14:36:45.750Z,101699.69
2018-07-08T14:39:14.051Z,101694.68
2018-07-08T14:41:42.422Z,101699.44
2018-07-08T14:44:10.756Z,101700.98
2018-07-08T14:46:39.300Z,101698.13
2018-07-08T14:49:07.656Z,101699.05
2018-07-08T14:51:36.013Z,101695.73
2018-07-08T14:54:04.381Z,101692.26
2018-07-08T14:56:32.747Z,101704.83
2018-07-08T14:59:01.102Z,101694.81
2018-07-08T15:01:29.461Z,101687.39
2018-07-08T15:03:57.766Z,101694.37
2018-07-08T15:06:26.152Z,101692.84
2018-07-08T15:08:54.583Z,101688.85
2018-07-08T15:11:23.024Z,101684.66
2018-07-08T15:13:51.544Z,101688.42
2018-07-08T15:16:19.946Z,101679.28
2018-07-08T15:18:48.245Z,101679.86
2018-07-08T15:21:16.648Z,101682.83
2018-07-08T15:23:44.984Z,101686.20
2018-07-08T15:26:13.316Z,101679.46
2018-07-08T15:28:41.689Z,101685.52
2018-07-08T15:31:10.109Z,101679.61
2018-07-08T15:33:38.494Z,101680.63
2018-07-08T15:36:06.927Z,101679.80
2018-07-08T15:38:35.546Z,101680.83
2018-07-08T15:41:03.987Z,101666.02
2018-07-08T15:43:32.973Z,101669.35
2018-07-08T15:46:01.389Z,101663.53
2018-07-08T15:48:30.596Z,101667.48
2018-07-08T15:50:59.009Z,101672.25
2018-07-08T15:53:27.489Z,101672.69
2018-07-08T15:55:55.941Z,101673.02
2018-07-08T15:58:24.255Z,101665.90
2018-07-08T16:00:52.614Z,101666.34
2018-07-08T16:03:20.983Z,101665.90
2018-07-08T16:05:49.611Z,101668.06
2018-07-08T16:08:17.999Z,101671.08
2018-07-08T16:10:46.374Z,101665.25
2018-07-08T16:13:14.724Z,101668.53
2018-07-08T16:15:43.053Z,101659.54
2018-07-08T16:18:11.462Z,101650.64
2018-07-08T16:20:39.792Z,101652.89
2018-07-08T16:23:08.134Z,101652.98
2018-07-08T16:25:36.471Z,101658.52
2018-07-08T16:28:04.817Z,101664.11
2018-07-08T16:30:33.256Z,101663.20
2018-07-08T16:33:01.640Z,101662.91
2018-07-08T16:35:29.992Z,101652.05
2018-07-08T16:37:58.364Z,101654.97
2018-07-08T16:40:26.715Z,101650.03
2018-07-08T16:42:55.078Z,101650.17
2018-07-08T16:45:23.430Z,101661.67
2018-07-08T16:47:51.823Z,101647.77
2018-07-08T16:50:20.177Z,101647.86
2018-07-08T16:52:48.641Z,101640.89
2018-07-08T16:55:16.996Z,101647.56
2018-07-08T16:57:45.348Z,101644.72
2018-07-08T17:00:13.873Z,101648.70
2018-07-08T17:02:42.217Z,101645.02
2018-07-08T17:05:10.593Z,101647.24
2018-07-08T17:07:38.922Z,101642.30
2018-07-08T17:10:07.312Z,101639.30
2018-07-08T17:12:35.679Z,101648.44
2018-07-08T17:15:04.092Z,101642.20
2018-07-08T17:17:32.438Z,101641.77
2018-07-08T17:20:00.869Z,101639.12
2018-07-08T17:22:29.221Z,101641.29
2018-07-08T17:24:57.820Z,101646.44
2018-07-08T17:27:26.201Z,101639.19
2018-07-08T17:29:54.607Z,101639.71
2018-07-08T17:32:22.974Z,101634.17
2018-07-08T17:34:51.297Z,101635.54
2018-07-08T17:37:19.670Z,101637.46
2018-07-08T17:39:48.280Z,101638.42
2018-07-08T17:42:16.726Z,101639.44
2018-07-08T17:44:45.223Z,101633.58
2018-07-08T17:47:13.601Z,101640.77
2018-07-08T17:49:41.963Z,101636.02
2018-07-08T17:52:10.342Z,101636.88
2018-07-08T17:54:38.779Z,101631.50
2018-07-08T17:57:07.172Z,101637.21
2018-07-08T17:59:35.605Z,101629.33
2018-07-08T18:02:03.963Z,101630.42
2018-07-08T18:04:32.340Z,101628.45
2018-07-08T18:07:00.807Z,101629.91
2018-07-08T18:09:29.452Z,101625.34
2018-07-08T18:11:58.039Z,101628.78
2018-07-08T18:14:26.385Z,101636.86
2018-07-08T18:16:54.904Z,101637.48
2018-07-08T18:19:23.905Z,101631.62
2018-07-08T18:21:52.255Z,101630.41
2018-07-08T18:24:20.652Z,101635.20
2018-07-08T18:26:49.043Z,101638.51
2018-07-08T18:29:17.406Z,101634.90
2018-07-08T18:31:45.777Z,101631.48
2018-07-08T18:34:14.189Z,101634.90
2018-07-08T18:36:42.831Z,101635.95
2018-07-08T18:39:11.624Z,101633.26
2018-07-08T18:41:40.711Z,101631.62
2018-07-08T18:44:09.430Z,101638.87
2018-07-08T18:46:37.909Z,101634.21
2018-07-08T18:49:06.245Z,101640.77
2018-07-08T18:51:34.889Z,101640.56
2018-07-08T18:54:03.218Z,101644.09
2018-07-08T18:56:31.538Z,101637.92
2018-07-08T18:58:59.944Z,101636.59
2018-07-08T19:01:28.272Z,101638.26
2018-07-08T19:03:56.691Z,101631.99
2018-07-08T19:06:25.054Z,101635.81
2018-07-08T19:08:53.396Z,101629.94
2018-07-08T19:11:21.813Z,101634.09
2018-07-08T19:13:50.185Z,101632.56
2018-07-08T19:16:18.523Z,101640.52
2018-07-08T19:18:47.684Z,101642.96
2018-07-08T19:21:16.057Z,101638.22
2018-07-08T19:23:44.417Z,101637.52
2018-07-08T19:26:12.826Z,101641.11
2018-07-08T19:28:41.160Z,101637.09
2018-07-08T19:31:09.501Z,101650.33
2018-07-08T19:33:37.838Z,101651.67
2018-07-08T19:36:06.220Z,101651.15
2018-07-08T19:38:34.604Z,101654.66
2018-07-08T19:41:03.007Z,101650.95
2018-07-08T19:43:31.363Z,101654.56
2018-07-08T19:45:59.716Z,101650.95
2018-07-08T19:48:28.063Z,101654.14
2018-07-08T19:50:56.451Z,101654.22
2018-07-08T19:53:24.892Z,101657.52
2018-07-08T19:55:53.637Z,101659.27
2018-07-08T19:58:22.170Z,101662.21
2018-07-08T20:00:50.584Z,101658.69
2018-07-08T20:03:19.240Z,101664.03
2018-07-08T20:05:47.599Z,101666.21
2018-07-08T20:08:15.957Z,101663.59
2018-07-08T20:10:44.309Z,101667.59
2018-07-08T20:13:12.675Z,101669.77
2018-07-08T20:15:41.058Z,101669.83
2018-07-08T20:18:09.421Z,101666.42
2018-07-08T20:20:37.778Z,101679.27
2018-07-08T20:23:06.145Z,101684.94
2018-07-08T20:25:34.496Z,101683.05
2018-07-08T20:28:02.939Z,101685.69
2018-07-08T20:30:31.256Z,101685.14
2018-07-08T20:32:59.629Z,101685.50
2018-07-08T20:35:27.996Z,101687.23
2018-07-08T20:37:56.809Z,101683.81
2018-07-08T20:40:25.170Z,101675.86
2018-07-08T20:42:53.555Z,101682.30
2018-07-08T20:45:21.973Z,101686.92
2018-07-08T20:47:50.353Z,101681.31
2018-07-08T20:50:18.711Z,101680.75
2018-07-08T20:52:47.251Z,101688.86
2018-07-08T20:55:15.707Z,101695.12
2018-07-08T20:57:44.049Z,101696.33
2018-07-08T21:00:13.612Z,101692.39
2018-07-08T21:02:42.118Z,101692.03
2018-07-08T21:05:10.452Z,101693.62
2018-07-08T21:07:38.929Z,101692.35
2018-07-08T21:10:07.850Z,101697.78
2018-07-08T21:12:36.242Z,101704.34
2018-07-08T21:15:05.445Z,101707.40
2018-07-08T21:17:33.800Z,101706.65
2018-07-08T21:20:02.217Z,101706.66
2018-07-08T21:22:30.767Z,101710.23
2018-07-08T21:24:59.134Z,101707.82
2018-07-08T21:27:27.514Z,101705.70
2018-07-08T21:29:55.865Z,101700.93
2018-07-08T21:32:24.237Z,101707.17
2018-07-08T21:34:52.637Z,101702.88
2018-07-08T21:37:21.306Z,101706.65
2018-07-08T21:39:49.799Z,101706.06
2018-07-08T21:42:18.265Z,101703.14
2018-07-08T21:44:46.642Z,101707.19
2018-07-08T21:47:14.951Z,101702.41
2018-07-08T21:49:43.379Z,101705.66
2018-07-08T21:52:11.754Z,101707.02
2018-07-08T21:54:40.184Z,101709.76
2018-07-08T21:57:08.533Z,101711.98
2018-07-08T21:59:36.921Z,101705.86
2018-07-08T22:02:10.672Z,101713.43
2018-07-08T22:04:39.214Z,101723.33
2018-07-08T22:07:12.873Z,101723.72
2018-07-08T22:09:41.223Z,101718.25
2018-07-08T22:12:09.645Z,101719.30
2018-07-08T22:14:38.037Z,101727.68
2018-07-08T22:17:06.379Z,101725.73
2018-07-08T22:19:34.750Z,101723.44
2018-07-08T22:22:03.142Z,101721.63
2018-07-08T22:24:31.541Z,101716.85
2018-07-08T22:26:59.880Z,101726.88
2018-07-08T22:29:28.201Z,101720.56
2018-07-08T22:31:56.554Z,101723.48
2018-07-08T22:34:25.037Z,101724.66
2018-07-08T22:36:53.848Z,101719.52
2018-07-08T22:39:22.192Z,101720.88
2018-07-08T22:41:50.519Z,101722.56
2018-07-08T22:44:18.956Z,101719.27
2018-07-08T22:46:47.314Z,101721.94
2018-07-08T22:49:15.669Z,101728.78
2018-07-08T22:51:44.007Z,101729.80
2018-07-08T22:54:12.647Z,101730.36
2018-07-08T22:56:41.052Z,101736.36
2018-07-08T22:59:09.407Z,101725.69
2018-07-08T23:01:49.195Z,101729.73
2018-07-08T23:04:17.580Z,101727.63
2018-07-08T23:06:45.909Z,101731.98
2018-07-08T23:09:14.368Z,101724.53
2018-07-08T23:11:42.717Z,101726.41
2018-07-08T23:14:11.064Z,101721.08
2018-07-08T23:16:39.400Z,101729.92
2018-07-08T23:19:07.734Z,101725.95
2018-07-08T23:21:36.056Z,101730.78
2018-07-08T23:24:04.421Z,101736.34
2018-07-08T23:26:32.768Z,101736.03
2018-07-08T23:29:01.133Z,101747.88
2018-07-08T23:31:29.523Z,101744.94
2018-07-08T23:33:57.901Z,101739.95
2018-07-08T23:36:26.334Z,101744.61
2018-07-08T23:38:54.693Z,101740.99
2018-07-08T23:41:23.061Z,101740.64
2018-07-08T23:43:51.444Z,101742.68
2018-07-08T23:46:20.200Z,101742.33
2018-07-08T23:48:48.599Z,101736.52
2018-07-08T23:51:16.889Z,101733.84
2018-07-08T23:53:45.285Z,101730.20
2018-07-08T23:56:13.675Z,101733.05
2018-07-08T23:58:42.037Z,101738.42
